Tiffany, Colorado
Current Conditions -  °F | °C
As of 3:53 AM on Friday 28 Nov 2014 (Local Time) from KDRO Reporting Station
Clear Clear  
Wind Chill: 13°   Ceiling: Unl
Heat Index: 21°   Visibility: 10mi
Dew Point: 17°   Wind: 6mph
Humidity: 85%   Direction: 60°ENE
Pressure: 30.31"   Gusts: NA
Location:  37.0891°N, 107.649°W
Report Text: KDRO 281053Z AUTO 06005KT 10SM CLR M06/M08 A3031 RMK AO2 SLP268 T10611083
Loading
Personal Weather Stations






























Interactive Weather Map New forecast layout! Learn more

10-Day Weather Forecast

Advertisements
Track Severe Weather on mobile